sensor_id;sensor_type;location;lat;lon;timestamp;P1;durP1;ratioP1;P2;durP2;ratioP2
12816;SDS011;6473;51.552;6.716;2024-01-16T00:02:01;8.30;;;4.90;;
12816;SDS011;6473;51.552;6.716;2024-01-16T00:04:29;8.53;;;4.63;;
12816;SDS011;6473;51.552;6.716;2024-01-16T00:06:56;11.57;;;5.47;;
12816;SDS011;6473;51.552;6.716;2024-01-16T00:09:23;4.90;;;4.37;;
12816;SDS011;6473;51.552;6.716;2024-01-16T00:11:50;9.43;;;4.30;;
12816;SDS011;6473;51.552;6.716;2024-01-16T00:14:18;9.23;;;4.57;;
12816;SDS011;6473;51.552;6.716;2024-01-16T00:16:45;5.20;;;3.80;;
12816;SDS011;6473;51.552;6.716;2024-01-16T00:19:12;5.40;;;3.73;;
12816;SDS011;6473;51.552;6.716;2024-01-16T00:21:41;6.23;;;4.13;;
12816;SDS011;6473;51.552;6.716;2024-01-16T00:24:10;5.10;;;3.93;;
12816;SDS011;6473;51.552;6.716;2024-01-16T00:26:38;4.90;;;3.87;;
12816;SDS011;6473;51.552;6.716;2024-01-16T00:29:05;6.40;;;3.80;;
12816;SDS011;6473;51.552;6.716;2024-01-16T00:31:32;5.83;;;3.60;;
12816;SDS011;6473;51.552;6.716;2024-01-16T00:33:59;5.27;;;3.53;;
12816;SDS011;6473;51.552;6.716;2024-01-16T00:36:26;10.50;;;3.77;;
12816;SDS011;6473;51.552;6.716;2024-01-16T00:38:55;4.47;;;3.50;;
12816;SDS011;6473;51.552;6.716;2024-01-16T00:41:22;6.03;;;3.70;;
12816;SDS011;6473;51.552;6.716;2024-01-16T00:43:49;4.33;;;3.30;;
12816;SDS011;6473;51.552;6.716;2024-01-16T00:46:16;4.30;;;3.57;;
12816;SDS011;6473;51.552;6.716;2024-01-16T00:48:43;4.70;;;3.67;;
12816;SDS011;6473;51.552;6.716;2024-01-16T00:51:10;4.67;;;3.13;;
12816;SDS011;6473;51.552;6.716;2024-01-16T00:53:39;4.83;;;3.70;;
12816;SDS011;6473;51.552;6.716;2024-01-16T00:56:08;7.43;;;4.40;;
12816;SDS011;6473;51.552;6.716;2024-01-16T00:58:35;7.70;;;3.70;;
12816;SDS011;6473;51.552;6.716;2024-01-16T01:01:03;7.60;;;3.73;;
12816;SDS011;6473;51.552;6.716;2024-01-16T01:03:30;5.07;;;3.90;;
12816;SDS011;6473;51.552;6.716;2024-01-16T01:05:57;6.33;;;3.90;;
12816;SDS011;6473;51.552;6.716;2024-01-16T01:08:24;7.50;;;3.63;;
12816;SDS011;6473;51.552;6.716;2024-01-16T01:10:51;8.70;;;4.23;;
12816;SDS011;6473;51.552;6.716;2024-01-16T01:13:20;8.43;;;4.00;;
12816;SDS011;6473;51.552;6.716;2024-01-16T01:15:47;7.93;;;4.17;;
12816;SDS011;6473;51.552;6.716;2024-01-16T01:18:14;6.53;;;3.30;;
12816;SDS011;6473;51.552;6.716;2024-01-16T01:20:41;7.43;;;3.60;;
12816;SDS011;6473;51.552;6.716;2024-01-16T01:23:09;5.70;;;4.23;;
12816;SDS011;6473;51.552;6.716;2024-01-16T01:25:36;6.80;;;4.13;;
12816;SDS011;6473;51.552;6.716;2024-01-16T01:28:03;6.87;;;4.13;;
12816;SDS011;6473;51.552;6.716;2024-01-16T01:30:32;8.03;;;4.30;;
12816;SDS011;6473;51.552;6.716;2024-01-16T01:32:59;9.40;;;4.60;;
12816;SDS011;6473;51.552;6.716;2024-01-16T01:35:26;7.13;;;4.50;;
12816;SDS011;6473;51.552;6.716;2024-01-16T01:37:53;6.60;;;4.30;;
12816;SDS011;6473;51.552;6.716;2024-01-16T01:40:20;8.17;;;4.00;;
12816;SDS011;6473;51.552;6.716;2024-01-16T01:42:47;6.33;;;3.70;;
12816;SDS011;6473;51.552;6.716;2024-01-16T01:45:14;6.60;;;4.50;;
12816;SDS011;6473;51.552;6.716;2024-01-16T01:47:43;6.97;;;4.20;;
12816;SDS011;6473;51.552;6.716;2024-01-16T01:50:10;6.00;;;3.70;;
12816;SDS011;6473;51.552;6.716;2024-01-16T01:52:38;6.60;;;4.57;;
12816;SDS011;6473;51.552;6.716;2024-01-16T01:55:06;8.83;;;4.23;;
12816;SDS011;6473;51.552;6.716;2024-01-16T01:57:36;9.53;;;3.63;;
12816;SDS011;6473;51.552;6.716;2024-01-16T02:00:04;9.87;;;4.63;;
12816;SDS011;6473;51.552;6.716;2024-01-16T02:02:37;7.40;;;4.10;;
12816;SDS011;6473;51.552;6.716;2024-01-16T02:05:07;10.23;;;4.30;;
12816;SDS011;6473;51.552;6.716;2024-01-16T02:07:34;6.13;;;4.13;;
12816;SDS011;6473;51.552;6.716;2024-01-16T02:10:01;7.77;;;4.03;;
12816;SDS011;6473;51.552;6.716;2024-01-16T02:12:29;8.10;;;4.67;;
12816;SDS011;6473;51.552;6.716;2024-01-16T02:14:56;6.17;;;4.23;;
12816;SDS011;6473;51.552;6.716;2024-01-16T02:17:23;5.83;;;3.83;;
12816;SDS011;6473;51.552;6.716;2024-01-16T02:19:50;6.53;;;3.93;;
12816;SDS011;6473;51.552;6.716;2024-01-16T02:22:20;8.60;;;4.47;;
12816;SDS011;6473;51.552;6.716;2024-01-16T02:24:51;8.13;;;4.03;;
12816;SDS011;6473;51.552;6.716;2024-01-16T02:27:18;8.03;;;4.07;;
12816;SDS011;6473;51.552;6.716;2024-01-16T02:29:45;7.87;;;4.77;;
12816;SDS011;6473;51.552;6.716;2024-01-16T02:32:12;6.77;;;4.63;;
12816;SDS011;6473;51.552;6.716;2024-01-16T02:34:40;7.37;;;4.57;;
12816;SDS011;6473;51.552;6.716;2024-01-16T02:37:07;7.40;;;4.90;;
12816;SDS011;6473;51.552;6.716;2024-01-16T02:39:34;5.20;;;4.30;;
12816;SDS011;6473;51.552;6.716;2024-01-16T02:42:03;7.87;;;4.50;;
12816;SDS011;6473;51.552;6.716;2024-01-16T02:44:30;13.23;;;4.83;;
12816;SDS011;6473;51.552;6.716;2024-01-16T02:46:58;11.53;;;5.23;;
12816;SDS011;6473;51.552;6.716;2024-01-16T02:49:25;8.90;;;5.13;;
12816;SDS011;6473;51.552;6.716;2024-01-16T02:51:52;7.87;;;4.70;;
12816;SDS011;6473;51.552;6.716;2024-01-16T02:54:20;7.43;;;5.27;;
12816;SDS011;6473;51.552;6.716;2024-01-16T02:56:47;9.73;;;5.27;;
12816;SDS011;6473;51.552;6.716;2024-01-16T02:59:15;8.80;;;4.87;;
12816;SDS011;6473;51.552;6.716;2024-01-16T03:01:42;6.93;;;4.73;;
12816;SDS011;6473;51.552;6.716;2024-01-16T03:04:10;7.80;;;4.87;;
12816;SDS011;6473;51.552;6.716;2024-01-16T03:06:37;5.63;;;4.27;;
12816;SDS011;6473;51.552;6.716;2024-01-16T03:09:04;6.13;;;4.50;;
12816;SDS011;6473;51.552;6.716;2024-01-16T03:11:31;5.77;;;4.27;;
12816;SDS011;6473;51.552;6.716;2024-01-16T03:13:59;7.30;;;4.57;;
12816;SDS011;6473;51.552;6.716;2024-01-16T03:16:27;10.07;;;4.67;;
12816;SDS011;6473;51.552;6.716;2024-01-16T03:18:55;6.00;;;4.10;;
12816;SDS011;6473;51.552;6.716;2024-01-16T03:21:22;7.47;;;4.47;;
12816;SDS011;6473;51.552;6.716;2024-01-16T03:23:49;6.17;;;4.50;;
12816;SDS011;6473;51.552;6.716;2024-01-16T03:26:17;9.03;;;4.53;;
12816;SDS011;6473;51.552;6.716;2024-01-16T03:28:44;10.97;;;4.53;;
12816;SDS011;6473;51.552;6.716;2024-01-16T03:31:12;9.93;;;5.23;;
12816;SDS011;6473;51.552;6.716;2024-01-16T03:33:40;6.90;;;5.00;;
12816;SDS011;6473;51.552;6.716;2024-01-16T03:36:08;9.93;;;5.30;;
12816;SDS011;6473;51.552;6.716;2024-01-16T03:38:35;8.53;;;5.00;;
12816;SDS011;6473;51.552;6.716;2024-01-16T03:41:03;8.70;;;5.20;;
12816;SDS011;6473;51.552;6.716;2024-01-16T03:43:32;8.07;;;5.10;;
12816;SDS011;6473;51.552;6.716;2024-01-16T03:45:59;9.23;;;5.17;;
12816;SDS011;6473;51.552;6.716;2024-01-16T03:48:26;9.97;;;6.23;;
12816;SDS011;6473;51.552;6.716;2024-01-16T03:50:55;9.63;;;5.67;;
12816;SDS011;6473;51.552;6.716;2024-01-16T03:53:22;8.40;;;5.43;;
12816;SDS011;6473;51.552;6.716;2024-01-16T03:55:49;9.30;;;5.63;;
12816;SDS011;6473;51.552;6.716;2024-01-16T03:58:16;8.80;;;6.07;;
12816;SDS011;6473;51.552;6.716;2024-01-16T04:00:43;9.77;;;5.53;;
12816;SDS011;6473;51.552;6.716;2024-01-16T04:03:10;12.10;;;5.40;;
12816;SDS011;6473;51.552;6.716;2024-01-16T04:05:38;11.10;;;5.73;;
12816;SDS011;6473;51.552;6.716;2024-01-16T04:08:06;9.27;;;6.33;;
12816;SDS011;6473;51.552;6.716;2024-01-16T04:10:33;11.33;;;6.50;;
12816;SDS011;6473;51.552;6.716;2024-01-16T04:13:00;7.77;;;5.27;;
12816;SDS011;6473;51.552;6.716;2024-01-16T04:15:28;10.57;;;5.63;;
12816;SDS011;6473;51.552;6.716;2024-01-16T04:17:54;7.40;;;5.20;;
12816;SDS011;6473;51.552;6.716;2024-01-16T04:20:21;12.80;;;5.60;;
12816;SDS011;6473;51.552;6.716;2024-01-16T04:22:48;9.70;;;5.27;;
12816;SDS011;6473;51.552;6.716;2024-01-16T04:25:17;7.10;;;4.70;;
12816;SDS011;6473;51.552;6.716;2024-01-16T04:27:43;9.93;;;4.67;;
12816;SDS011;6473;51.552;6.716;2024-01-16T04:30:11;6.70;;;4.90;;
12816;SDS011;6473;51.552;6.716;2024-01-16T04:32:38;8.20;;;4.40;;
12816;SDS011;6473;51.552;6.716;2024-01-16T04:35:06;8.47;;;4.30;;
12816;SDS011;6473;51.552;6.716;2024-01-16T04:37:33;10.07;;;4.43;;
12816;SDS011;6473;51.552;6.716;2024-01-16T04:40:00;8.33;;;4.63;;
12816;SDS011;6473;51.552;6.716;2024-01-16T04:42:29;6.17;;;4.30;;
12816;SDS011;6473;51.552;6.716;2024-01-16T04:44:56;6.20;;;4.23;;
12816;SDS011;6473;51.552;6.716;2024-01-16T04:47:23;8.37;;;4.50;;
12816;SDS011;6473;51.552;6.716;2024-01-16T04:49:50;6.90;;;4.10;;
12816;SDS011;6473;51.552;6.716;2024-01-16T04:52:18;6.10;;;3.73;;
12816;SDS011;6473;51.552;6.716;2024-01-16T04:54:45;6.93;;;3.33;;
12816;SDS011;6473;51.552;6.716;2024-01-16T04:57:12;8.70;;;4.03;;
12816;SDS011;6473;51.552;6.716;2024-01-16T04:59:41;6.30;;;4.50;;
12816;SDS011;6473;51.552;6.716;2024-01-16T05:02:08;5.57;;;3.50;;
12816;SDS011;6473;51.552;6.716;2024-01-16T05:04:36;7.00;;;4.30;;
12816;SDS011;6473;51.552;6.716;2024-01-16T05:07:04;6.97;;;3.87;;
12816;SDS011;6473;51.552;6.716;2024-01-16T05:09:31;4.73;;;3.43;;
12816;SDS011;6473;51.552;6.716;2024-01-16T05:11:58;7.40;;;3.53;;
12816;SDS011;6473;51.552;6.716;2024-01-16T05:14:25;3.73;;;3.33;;
12816;SDS011;6473;51.552;6.716;2024-01-16T05:16:54;7.03;;;3.73;;
12816;SDS011;6473;51.552;6.716;2024-01-16T05:19:21;5.33;;;3.37;;
12816;SDS011;6473;51.552;6.716;2024-01-16T05:21:48;3.33;;;2.73;;
12816;SDS011;6473;51.552;6.716;2024-01-16T05:24:15;4.37;;;2.83;;
12816;SDS011;6473;51.552;6.716;2024-01-16T05:26:42;5.53;;;3.17;;
12816;SDS011;6473;51.552;6.716;2024-01-16T05:29:10;5.20;;;2.63;;
12816;SDS011;6473;51.552;6.716;2024-01-16T05:31:39;3.80;;;2.50;;
12816;SDS011;6473;51.552;6.716;2024-01-16T05:34:08;4.27;;;2.67;;
12816;SDS011;6473;51.552;6.716;2024-01-16T05:36:35;4.50;;;3.20;;
12816;SDS011;6473;51.552;6.716;2024-01-16T05:39:02;3.80;;;2.80;;
12816;SDS011;6473;51.552;6.716;2024-01-16T05:41:32;4.73;;;2.50;;
12816;SDS011;6473;51.552;6.716;2024-01-16T05:43:59;3.90;;;2.80;;
12816;SDS011;6473;51.552;6.716;2024-01-16T05:46:28;7.33;;;3.60;;
12816;SDS011;6473;51.552;6.716;2024-01-16T05:48:56;6.57;;;4.53;;
12816;SDS011;6473;51.552;6.716;2024-01-16T05:51:24;5.83;;;3.90;;
12816;SDS011;6473;51.552;6.716;2024-01-16T05:53:51;10.13;;;4.70;;
12816;SDS011;6473;51.552;6.716;2024-01-16T05:56:19;10.23;;;4.90;;
12816;SDS011;6473;51.552;6.716;2024-01-16T05:58:46;8.93;;;5.00;;
12816;SDS011;6473;51.552;6.716;2024-01-16T06:01:14;8.77;;;4.43;;
12816;SDS011;6473;51.552;6.716;2024-01-16T06:03:41;8.93;;;5.83;;
12816;SDS011;6473;51.552;6.716;2024-01-16T06:06:11;9.10;;;5.77;;
12816;SDS011;6473;51.552;6.716;2024-01-16T06:08:39;10.47;;;5.90;;
12816;SDS011;6473;51.552;6.716;2024-01-16T06:11:07;12.13;;;7.00;;
12816;SDS011;6473;51.552;6.716;2024-01-16T06:13:35;9.40;;;6.53;;
12816;SDS011;6473;51.552;6.716;2024-01-16T06:16:03;12.03;;;7.20;;
12816;SDS011;6473;51.552;6.716;2024-01-16T06:18:30;11.37;;;7.73;;
12816;SDS011;6473;51.552;6.716;2024-01-16T06:20:57;12.33;;;8.60;;
12816;SDS011;6473;51.552;6.716;2024-01-16T06:23:24;18.90;;;9.33;;
12816;SDS011;6473;51.552;6.716;2024-01-16T06:25:53;15.13;;;8.70;;
12816;SDS011;6473;51.552;6.716;2024-01-16T06:28:20;16.43;;;9.33;;
12816;SDS011;6473;51.552;6.716;2024-01-16T06:30:47;16.47;;;10.27;;
12816;SDS011;6473;51.552;6.716;2024-01-16T06:33:14;18.60;;;10.77;;
12816;SDS011;6473;51.552;6.716;2024-01-16T06:35:41;17.80;;;9.73;;
12816;SDS011;6473;51.552;6.716;2024-01-16T06:38:11;18.27;;;10.30;;
12816;SDS011;6473;51.552;6.716;2024-01-16T06:40:38;16.33;;;9.43;;
12816;SDS011;6473;51.552;6.716;2024-01-16T06:43:06;19.73;;;10.13;;
12816;SDS011;6473;51.552;6.716;2024-01-16T06:45:34;17.40;;;9.47;;
12816;SDS011;6473;51.552;6.716;2024-01-16T06:48:01;15.33;;;10.17;;
12816;SDS011;6473;51.552;6.716;2024-01-16T06:50:28;18.10;;;9.97;;
12816;SDS011;6473;51.552;6.716;2024-01-16T06:52:55;16.73;;;8.83;;
12816;SDS011;6473;51.552;6.716;2024-01-16T06:55:22;18.20;;;9.43;;
12816;SDS011;6473;51.552;6.716;2024-01-16T06:57:49;17.63;;;9.43;;
12816;SDS011;6473;51.552;6.716;2024-01-16T07:00:18;14.00;;;8.80;;
12816;SDS011;6473;51.552;6.716;2024-01-16T07:02:48;14.57;;;9.47;;
12816;SDS011;6473;51.552;6.716;2024-01-16T07:05:16;15.20;;;8.37;;
12816;SDS011;6473;51.552;6.716;2024-01-16T07:07:43;12.27;;;8.03;;
12816;SDS011;6473;51.552;6.716;2024-01-16T07:10:10;15.70;;;8.47;;
12816;SDS011;6473;51.552;6.716;2024-01-16T07:12:43;16.33;;;7.63;;
12816;SDS011;6473;51.552;6.716;2024-01-16T07:15:10;12.70;;;7.13;;
12816;SDS011;6473;51.552;6.716;2024-01-16T07:17:39;13.40;;;6.30;;
12816;SDS011;6473;51.552;6.716;2024-01-16T07:20:07;11.70;;;6.70;;
12816;SDS011;6473;51.552;6.716;2024-01-16T07:22:36;12.97;;;6.63;;
12816;SDS011;6473;51.552;6.716;2024-01-16T07:25:04;13.30;;;6.97;;
12816;SDS011;6473;51.552;6.716;2024-01-16T07:27:31;11.53;;;6.23;;
12816;SDS011;6473;51.552;6.716;2024-01-16T07:29:59;11.23;;;6.33;;
12816;SDS011;6473;51.552;6.716;2024-01-16T07:32:26;12.23;;;5.90;;
12816;SDS011;6473;51.552;6.716;2024-01-16T07:34:54;11.00;;;6.03;;
12816;SDS011;6473;51.552;6.716;2024-01-16T07:37:21;9.60;;;5.77;;
12816;SDS011;6473;51.552;6.716;2024-01-16T07:39:49;6.87;;;5.30;;
12816;SDS011;6473;51.552;6.716;2024-01-16T07:42:16;12.97;;;5.40;;
12816;SDS011;6473;51.552;6.716;2024-01-16T07:44:43;7.73;;;4.90;;
12816;SDS011;6473;51.552;6.716;2024-01-16T07:47:10;13.03;;;5.60;;
12816;SDS011;6473;51.552;6.716;2024-01-16T07:49:37;12.77;;;5.80;;
12816;SDS011;6473;51.552;6.716;2024-01-16T07:52:06;8.50;;;5.10;;
12816;SDS011;6473;51.552;6.716;2024-01-16T07:54:33;8.50;;;4.87;;
12816;SDS011;6473;51.552;6.716;2024-01-16T07:57:00;7.37;;;4.47;;
12816;SDS011;6473;51.552;6.716;2024-01-16T07:59:27;6.93;;;4.07;;
12816;SDS011;6473;51.552;6.716;2024-01-16T08:01:54;12.20;;;4.57;;
12816;SDS011;6473;51.552;6.716;2024-01-16T08:04:22;6.57;;;4.97;;
12816;SDS011;6473;51.552;6.716;2024-01-16T08:06:49;8.13;;;4.23;;
12816;SDS011;6473;51.552;6.716;2024-01-16T08:09:18;5.23;;;3.77;;
12816;SDS011;6473;51.552;6.716;2024-01-16T08:11:45;5.40;;;3.90;;
12816;SDS011;6473;51.552;6.716;2024-01-16T08:14:12;10.80;;;4.20;;
12816;SDS011;6473;51.552;6.716;2024-01-16T08:16:39;8.47;;;3.93;;
12816;SDS011;6473;51.552;6.716;2024-01-16T08:19:07;8.77;;;4.70;;
12816;SDS011;6473;51.552;6.716;2024-01-16T08:21:34;8.53;;;4.23;;
12816;SDS011;6473;51.552;6.716;2024-01-16T08:24:01;7.03;;;3.40;;
12816;SDS011;6473;51.552;6.716;2024-01-16T08:26:29;8.57;;;3.63;;
12816;SDS011;6473;51.552;6.716;2024-01-16T08:28:57;8.10;;;3.60;;
12816;SDS011;6473;51.552;6.716;2024-01-16T08:31:24;6.40;;;3.67;;
12816;SDS011;6473;51.552;6.716;2024-01-16T08:33:52;6.23;;;2.93;;
12816;SDS011;6473;51.552;6.716;2024-01-16T08:36:21;11.50;;;3.50;;
12816;SDS011;6473;51.552;6.716;2024-01-16T08:38:48;4.90;;;3.37;;
12816;SDS011;6473;51.552;6.716;2024-01-16T08:41:15;5.87;;;3.40;;
12816;SDS011;6473;51.552;6.716;2024-01-16T08:43:44;6.27;;;3.23;;
12816;SDS011;6473;51.552;6.716;2024-01-16T08:46:10;5.70;;;3.13;;
12816;SDS011;6473;51.552;6.716;2024-01-16T08:48:37;6.57;;;3.33;;
12816;SDS011;6473;51.552;6.716;2024-01-16T08:51:07;9.73;;;2.57;;
12816;SDS011;6473;51.552;6.716;2024-01-16T08:53:35;4.10;;;2.50;;
12816;SDS011;6473;51.552;6.716;2024-01-16T08:56:02;6.40;;;2.40;;
12816;SDS011;6473;51.552;6.716;2024-01-16T08:58:31;6.80;;;2.77;;
12816;SDS011;6473;51.552;6.716;2024-01-16T09:01:02;4.53;;;2.70;;
12816;SDS011;6473;51.552;6.716;2024-01-16T09:03:30;6.63;;;3.03;;
12816;SDS011;6473;51.552;6.716;2024-01-16T09:05:57;5.83;;;3.10;;
12816;SDS011;6473;51.552;6.716;2024-01-16T09:08:25;7.57;;;3.10;;
12816;SDS011;6473;51.552;6.716;2024-01-16T09:10:52;9.27;;;3.10;;
12816;SDS011;6473;51.552;6.716;2024-01-16T09:13:19;5.57;;;3.00;;
12816;SDS011;6473;51.552;6.716;2024-01-16T09:15:48;4.10;;;2.30;;
12816;SDS011;6473;51.552;6.716;2024-01-16T09:18:17;4.50;;;2.70;;
12816;SDS011;6473;51.552;6.716;2024-01-16T09:20:44;4.93;;;2.80;;
12816;SDS011;6473;51.552;6.716;2024-01-16T09:23:11;4.90;;;2.17;;
12816;SDS011;6473;51.552;6.716;2024-01-16T09:25:39;4.60;;;2.70;;
12816;SDS011;6473;51.552;6.716;2024-01-16T09:28:06;4.50;;;2.33;;
12816;SDS011;6473;51.552;6.716;2024-01-16T09:30:34;4.87;;;3.00;;
12816;SDS011;6473;51.552;6.716;2024-01-16T09:33:01;5.40;;;2.90;;
12816;SDS011;6473;51.552;6.716;2024-01-16T09:35:30;5.97;;;2.80;;
12816;SDS011;6473;51.552;6.716;2024-01-16T09:37:58;3.33;;;2.27;;
12816;SDS011;6473;51.552;6.716;2024-01-16T09:40:25;4.27;;;2.70;;
12816;SDS011;6473;51.552;6.716;2024-01-16T09:42:52;3.43;;;2.83;;
12816;SDS011;6473;51.552;6.716;2024-01-16T09:45:20;3.07;;;2.40;;
12816;SDS011;6473;51.552;6.716;2024-01-16T09:47:47;6.47;;;3.40;;
12816;SDS011;6473;51.552;6.716;2024-01-16T09:50:14;6.43;;;3.30;;
12816;SDS011;6473;51.552;6.716;2024-01-16T09:52:45;7.70;;;2.90;;
12816;SDS011;6473;51.552;6.716;2024-01-16T09:55:12;3.87;;;2.87;;
12816;SDS011;6473;51.552;6.716;2024-01-16T09:57:40;6.93;;;2.80;;
12816;SDS011;6473;51.552;6.716;2024-01-16T10:00:08;4.30;;;2.70;;
12816;SDS011;6473;51.552;6.716;2024-01-16T10:02:37;3.90;;;2.90;;
12816;SDS011;6473;51.552;6.716;2024-01-16T10:05:04;5.37;;;3.00;;
12816;SDS011;6473;51.552;6.716;2024-01-16T10:07:33;5.57;;;2.63;;
12816;SDS011;6473;51.552;6.716;2024-01-16T10:10:03;6.33;;;3.00;;
12816;SDS011;6473;51.552;6.716;2024-01-16T10:12:30;5.17;;;2.77;;
12816;SDS011;6473;51.552;6.716;2024-01-16T10:14:57;6.00;;;2.70;;
12816;SDS011;6473;51.552;6.716;2024-01-16T10:17:35;4.77;;;2.93;;
12816;SDS011;6473;51.552;6.716;2024-01-16T10:20:02;10.27;;;3.73;;
12816;SDS011;6473;51.552;6.716;2024-01-16T10:22:30;6.63;;;2.73;;
12816;SDS011;6473;51.552;6.716;2024-01-16T10:25:08;7.27;;;3.33;;
12816;SDS011;6473;51.552;6.716;2024-01-16T10:27:36;5.07;;;2.63;;
12816;SDS011;6473;51.552;6.716;2024-01-16T10:30:04;9.20;;;3.27;;
12816;SDS011;6473;51.552;6.716;2024-01-16T10:32:33;5.97;;;3.53;;
12816;SDS011;6473;51.552;6.716;2024-01-16T10:35:01;5.53;;;3.00;;
12816;SDS011;6473;51.552;6.716;2024-01-16T10:37:29;5.10;;;3.53;;
12816;SDS011;6473;51.552;6.716;2024-01-16T10:39:56;7.17;;;3.17;;
12816;SDS011;6473;51.552;6.716;2024-01-16T10:42:25;5.70;;;2.70;;
12816;SDS011;6473;51.552;6.716;2024-01-16T10:44:52;6.53;;;3.50;;
12816;SDS011;6473;51.552;6.716;2024-01-16T10:47:21;5.77;;;3.33;;
12816;SDS011;6473;51.552;6.716;2024-01-16T10:49:48;6.37;;;3.20;;
12816;SDS011;6473;51.552;6.716;2024-01-16T10:52:15;4.17;;;2.77;;
12816;SDS011;6473;51.552;6.716;2024-01-16T10:54:45;4.27;;;3.10;;
12816;SDS011;6473;51.552;6.716;2024-01-16T10:57:15;6.87;;;3.10;;
12816;SDS011;6473;51.552;6.716;2024-01-16T10:59:47;3.43;;;2.40;;
12816;SDS011;6473;51.552;6.716;2024-01-16T11:02:23;4.37;;;2.67;;
12816;SDS011;6473;51.552;6.716;2024-01-16T11:04:54;5.33;;;2.90;;
12816;SDS011;6473;51.552;6.716;2024-01-16T11:07:22;5.03;;;2.70;;
12816;SDS011;6473;51.552;6.716;2024-01-16T11:09:51;4.27;;;2.83;;
12816;SDS011;6473;51.552;6.716;2024-01-16T11:12:19;5.87;;;3.20;;
12816;SDS011;6473;51.552;6.716;2024-01-16T11:14:49;6.43;;;2.60;;
12816;SDS011;6473;51.552;6.716;2024-01-16T11:17:18;3.30;;;2.63;;
12816;SDS011;6473;51.552;6.716;2024-01-16T11:19:46;4.77;;;2.97;;
12816;SDS011;6473;51.552;6.716;2024-01-16T11:22:14;4.47;;;3.13;;
12816;SDS011;6473;51.552;6.716;2024-01-16T11:24:43;5.70;;;2.83;;
12816;SDS011;6473;51.552;6.716;2024-01-16T11:27:20;4.80;;;3.00;;
12816;SDS011;6473;51.552;6.716;2024-01-16T11:29:50;5.83;;;3.27;;
12816;SDS011;6473;51.552;6.716;2024-01-16T11:32:32;6.37;;;3.17;;
12816;SDS011;6473;51.552;6.716;2024-01-16T11:35:00;9.87;;;3.07;;
12816;SDS011;6473;51.552;6.716;2024-01-16T11:37:28;4.73;;;2.83;;
12816;SDS011;6473;51.552;6.716;2024-01-16T11:42:47;4.63;;;3.13;;
12816;SDS011;6473;51.552;6.716;2024-01-16T11:48:18;2.87;;;2.50;;
12816;SDS011;6473;51.552;6.716;2024-01-16T11:50:46;5.23;;;2.83;;
12816;SDS011;6473;51.552;6.716;2024-01-16T11:53:32;8.20;;;3.07;;
12816;SDS011;6473;51.552;6.716;2024-01-16T11:56:25;4.23;;;2.87;;
12816;SDS011;6473;51.552;6.716;2024-01-16T11:58:57;3.07;;;2.63;;
12816;SDS011;6473;51.552;6.716;2024-01-16T12:01:31;4.93;;;2.53;;
12816;SDS011;6473;51.552;6.716;2024-01-16T12:04:02;4.47;;;2.83;;
12816;SDS011;6473;51.552;6.716;2024-01-16T12:06:30;7.73;;;3.07;;
12816;SDS011;6473;51.552;6.716;2024-01-16T12:09:10;4.23;;;2.60;;
12816;SDS011;6473;51.552;6.716;2024-01-16T12:11:38;5.93;;;3.33;;
12816;SDS011;6473;51.552;6.716;2024-01-16T12:14:05;5.23;;;2.80;;
12816;SDS011;6473;51.552;6.716;2024-01-16T12:16:34;6.03;;;2.50;;
12816;SDS011;6473;51.552;6.716;2024-01-16T12:19:05;4.73;;;2.77;;
12816;SDS011;6473;51.552;6.716;2024-01-16T12:21:33;3.40;;;2.97;;
12816;SDS011;6473;51.552;6.716;2024-01-16T12:24:01;7.23;;;3.00;;
12816;SDS011;6473;51.552;6.716;2024-01-16T12:26:30;4.27;;;2.83;;
12816;SDS011;6473;51.552;6.716;2024-01-16T12:28:57;3.83;;;3.07;;
12816;SDS011;6473;51.552;6.716;2024-01-16T12:31:25;3.90;;;2.70;;
12816;SDS011;6473;51.552;6.716;2024-01-16T12:33:54;5.87;;;3.10;;
12816;SDS011;6473;51.552;6.716;2024-01-16T12:36:30;6.10;;;2.60;;
12816;SDS011;6473;51.552;6.716;2024-01-16T12:38:57;5.47;;;2.90;;
12816;SDS011;6473;51.552;6.716;2024-01-16T12:41:24;5.23;;;2.80;;
12816;SDS011;6473;51.552;6.716;2024-01-16T12:43:54;4.87;;;3.00;;
12816;SDS011;6473;51.552;6.716;2024-01-16T12:46:21;6.40;;;3.10;;
12816;SDS011;6473;51.552;6.716;2024-01-16T12:48:48;6.50;;;2.97;;
12816;SDS011;6473;51.552;6.716;2024-01-16T12:51:21;5.50;;;2.70;;
12816;SDS011;6473;51.552;6.716;2024-01-16T12:53:48;5.57;;;3.43;;
12816;SDS011;6473;51.552;6.716;2024-01-16T12:56:18;4.03;;;2.93;;
12816;SDS011;6473;51.552;6.716;2024-01-16T12:58:46;6.67;;;3.10;;
12816;SDS011;6473;51.552;6.716;2024-01-16T13:01:22;4.27;;;3.00;;
12816;SDS011;6473;51.552;6.716;2024-01-16T13:03:50;4.17;;;3.03;;
12816;SDS011;6473;51.552;6.716;2024-01-16T13:06:17;5.33;;;2.87;;
12816;SDS011;6473;51.552;6.716;2024-01-16T13:08:46;7.20;;;2.77;;
12816;SDS011;6473;51.552;6.716;2024-01-16T13:11:13;6.10;;;3.27;;
12816;SDS011;6473;51.552;6.716;2024-01-16T13:13:45;6.50;;;3.13;;
12816;SDS011;6473;51.552;6.716;2024-01-16T13:16:13;4.00;;;2.70;;
12816;SDS011;6473;51.552;6.716;2024-01-16T13:18:40;6.07;;;3.70;;
12816;SDS011;6473;51.552;6.716;2024-01-16T13:21:08;3.47;;;2.60;;
12816;SDS011;6473;51.552;6.716;2024-01-16T13:23:35;7.57;;;3.40;;
12816;SDS011;6473;51.552;6.716;2024-01-16T13:26:03;6.43;;;3.23;;
12816;SDS011;6473;51.552;6.716;2024-01-16T13:28:32;3.13;;;2.53;;
12816;SDS011;6473;51.552;6.716;2024-01-16T13:30:59;5.17;;;3.30;;
12816;SDS011;6473;51.552;6.716;2024-01-16T13:33:28;5.90;;;3.50;;
12816;SDS011;6473;51.552;6.716;2024-01-16T13:35:57;4.07;;;3.23;;
12816;SDS011;6473;51.552;6.716;2024-01-16T13:38:24;5.30;;;3.67;;
12816;SDS011;6473;51.552;6.716;2024-01-16T13:40:51;7.93;;;3.43;;
12816;SDS011;6473;51.552;6.716;2024-01-16T13:43:20;5.60;;;2.87;;
12816;SDS011;6473;51.552;6.716;2024-01-16T13:45:47;4.00;;;3.10;;
12816;SDS011;6473;51.552;6.716;2024-01-16T13:48:15;7.90;;;3.37;;
12816;SDS011;6473;51.552;6.716;2024-01-16T13:50:43;5.23;;;3.37;;
12816;SDS011;6473;51.552;6.716;2024-01-16T13:53:10;6.00;;;3.30;;
12816;SDS011;6473;51.552;6.716;2024-01-16T13:55:39;3.40;;;3.10;;
12816;SDS011;6473;51.552;6.716;2024-01-16T13:58:06;5.93;;;3.20;;
12816;SDS011;6473;51.552;6.716;2024-01-16T14:00:35;4.70;;;3.40;;
12816;SDS011;6473;51.552;6.716;2024-01-16T14:03:01;7.77;;;3.73;;
12816;SDS011;6473;51.552;6.716;2024-01-16T14:05:30;7.37;;;3.67;;
12816;SDS011;6473;51.552;6.716;2024-01-16T14:07:57;5.03;;;3.37;;
12816;SDS011;6473;51.552;6.716;2024-01-16T14:10:24;7.03;;;3.87;;
12816;SDS011;6473;51.552;6.716;2024-01-16T14:12:52;6.00;;;3.63;;
12816;SDS011;6473;51.552;6.716;2024-01-16T14:15:20;4.63;;;3.40;;
12816;SDS011;6473;51.552;6.716;2024-01-16T14:17:50;7.90;;;3.30;;
12816;SDS011;6473;51.552;6.716;2024-01-16T14:20:18;3.57;;;3.23;;
12816;SDS011;6473;51.552;6.716;2024-01-16T14:22:48;8.77;;;4.13;;
12816;SDS011;6473;51.552;6.716;2024-01-16T14:25:17;5.67;;;3.43;;
12816;SDS011;6473;51.552;6.716;2024-01-16T14:27:45;6.80;;;3.77;;
12816;SDS011;6473;51.552;6.716;2024-01-16T14:30:15;5.37;;;3.27;;
12816;SDS011;6473;51.552;6.716;2024-01-16T14:32:44;5.37;;;3.07;;
12816;SDS011;6473;51.552;6.716;2024-01-16T14:35:13;8.17;;;3.90;;
12816;SDS011;6473;51.552;6.716;2024-01-16T14:37:42;5.30;;;3.33;;
12816;SDS011;6473;51.552;6.716;2024-01-16T14:40:10;7.40;;;3.33;;
12816;SDS011;6473;51.552;6.716;2024-01-16T14:42:41;5.93;;;3.43;;
12816;SDS011;6473;51.552;6.716;2024-01-16T14:45:09;5.53;;;3.20;;
12816;SDS011;6473;51.552;6.716;2024-01-16T14:47:37;6.47;;;3.70;;
12816;SDS011;6473;51.552;6.716;2024-01-16T14:50:05;6.63;;;3.67;;
12816;SDS011;6473;51.552;6.716;2024-01-16T14:52:33;4.60;;;2.90;;
12816;SDS011;6473;51.552;6.716;2024-01-16T14:55:01;6.30;;;3.10;;
12816;SDS011;6473;51.552;6.716;2024-01-16T14:57:30;8.17;;;3.47;;
12816;SDS011;6473;51.552;6.716;2024-01-16T15:00:03;5.83;;;3.20;;
12816;SDS011;6473;51.552;6.716;2024-01-16T15:02:38;4.30;;;2.97;;
12816;SDS011;6473;51.552;6.716;2024-01-16T15:05:06;5.90;;;3.23;;
12816;SDS011;6473;51.552;6.716;2024-01-16T15:07:34;4.77;;;3.47;;
12816;SDS011;6473;51.552;6.716;2024-01-16T15:10:03;4.17;;;3.10;;
12816;SDS011;6473;51.552;6.716;2024-01-16T15:12:30;6.00;;;3.27;;